Time;durP1;ratioP1;P1;durP2;ratioP2;P2;SDS_P1;SDS_P2;PMS_P1;PMS_P2;Temp;Humidity;BMP_temperature;BMP_pressure;BME280_temperature;BME280_humidity;BME280_pressure;Samples;Min_cycle;Max_cycle;Signal;HPM_P1;HPM_P2
2020/12/17 00:00:41;;;;;;;9.70;6.60;;;14.40;96.70;;;;;;5050537;28;20202;-75
2020/12/17 00:03:11;;;;;;;12.38;6.50;;;14.30;97.30;;;;;;5043811;28;20385;-75
2020/12/17 00:05:38;;;;;;;8.98;6.80;;;14.30;96.90;;;;;;5045075;28;20434;-74
2020/12/17 00:08:05;;;;;;;8.73;6.68;;;14.00;96.60;;;;;;5054417;28;20045;-76
2020/12/17 00:10:32;;;;;;;8.48;7.18;;;13.90;96.90;;;;;;5045993;28;20022;-75
2020/12/17 00:12:59;;;;;;;14.30;7.90;;;13.70;97.00;;;;;;5035504;28;20038;-75
2020/12/17 00:15:26;;;;;;;9.07;7.65;;;13.50;96.90;;;;;;5036636;28;20030;-74
2020/12/17 00:17:53;;;;;;;17.65;8.00;;;13.30;97.40;;;;;;5051724;28;20381;-74
2020/12/17 00:20:21;;;;;;;8.93;7.30;;;13.30;97.60;;;;;;5052271;28;20722;-74
2020/12/17 00:22:49;;;;;;;9.15;7.03;;;13.20;97.30;;;;;;5053730;28;20033;-75
2020/12/17 00:25:18;;;;;;;9.32;8.32;;;13.20;97.60;;;;;;5052912;28;20040;-74
2020/12/17 00:27:46;;;;;;;11.18;8.88;;;13.20;97.30;;;;;;5044131;28;20045;-74
2020/12/17 00:30:14;;;;;;;10.52;8.88;;;13.10;97.70;;;;;;5034143;28;20038;-74
2020/12/17 00:32:42;;;;;;;14.38;9.55;;;13.00;97.80;;;;;;5052342;28;20041;-74
2020/12/17 00:35:10;;;;;;;12.27;9.77;;;12.90;97.60;;;;;;5051301;28;20048;-75
2020/12/17 00:37:38;;;;;;;12.30;9.40;;;12.80;97.90;;;;;;5049810;28;20033;-74
2020/12/17 00:40:08;;;;;;;14.25;10.35;;;12.80;98.40;;;;;;5053606;28;20021;-75
2020/12/17 00:42:41;;;;;;;11.75;10.13;;;12.70;98.80;;;;;;5051823;28;20021;-75
2020/12/17 00:45:09;;;;;;;13.15;10.68;;;12.60;99.10;;;;;;5051412;28;20037;-74
2020/12/17 00:47:36;;;;;;;12.15;10.90;;;12.50;99.30;;;;;;5047967;28;20033;-73
2020/12/17 00:50:05;;;;;;;12.55;11.05;;;12.50;99.40;;;;;;5034733;28;20025;-75
2020/12/17 00:52:38;;;;;;;12.20;10.90;;;12.50;99.90;;;;;;5046658;28;20037;-75
2020/12/17 00:55:06;;;;;;;13.48;10.77;;;12.40;99.90;;;;;;5033469;28;20083;-75
2020/12/17 00:57:34;;;;;;;15.10;11.68;;;12.40;99.90;;;;;;5045866;28;20040;-75
2020/12/17 01:00:00;;;;;;;18.33;11.35;;;12.30;99.90;;;;;;5052020;28;20025;-74
2020/12/17 01:02:28;;;;;;;15.35;12.77;;;12.30;99.90;;;;;;5052881;28;20037;-75
2020/12/17 01:04:55;;;;;;;14.65;12.23;;;12.20;99.90;;;;;;5053174;28;20450;-74
2020/12/17 01:07:22;;;;;;;15.05;12.35;;;12.10;99.90;;;;;;5052842;28;20359;-76
2020/12/17 01:09:49;;;;;;;15.30;13.63;;;12.10;99.90;;;;;;5040039;28;20029;-74
2020/12/17 01:12:16;;;;;;;16.25;12.65;;;12.10;99.90;;;;;;5033095;28;20025;-74
2020/12/17 01:14:44;;;;;;;17.10;13.80;;;12.00;99.90;;;;;;5032650;28;20394;-76
2020/12/17 01:17:11;;;;;;;18.95;13.60;;;11.90;99.90;;;;;;5033044;28;20029;-75
2020/12/17 01:19:41;;;;;;;16.00;13.57;;;11.80;99.90;;;;;;5042921;28;20026;-74
2020/12/17 01:22:08;;;;;;;13.88;12.48;;;11.70;99.90;;;;;;5033079;28;20115;-74
2020/12/17 01:24:35;;;;;;;17.73;13.40;;;11.70;99.90;;;;;;5032508;28;20017;-74
2020/12/17 01:27:05;;;;;;;17.52;14.10;;;11.70;99.90;;;;;;5035204;28;20041;-73
2020/12/17 01:29:32;;;;;;;14.85;13.32;;;11.60;99.90;;;;;;5050362;28;20546;-73
2020/12/17 01:32:01;;;;;;;17.17;13.45;;;11.50;99.90;;;;;;5051385;28;20033;-73
2020/12/17 01:34:27;;;;;;;17.17;13.77;;;11.50;99.90;;;;;;5050059;28;20390;-73
2020/12/17 01:36:55;;;;;;;17.05;14.60;;;11.20;99.90;;;;;;5032787;28;20032;-72
2020/12/17 01:39:23;;;;;;;20.15;14.52;;;11.10;99.90;;;;;;5050736;28;20040;-72
2020/12/17 01:41:51;;;;;;;16.98;13.45;;;11.10;99.90;;;;;;5050886;28;20029;-72
2020/12/17 01:44:17;;;;;;;15.10;13.40;;;11.10;99.90;;;;;;5052633;28;20036;-72
2020/12/17 01:46:44;;;;;;;18.52;14.20;;;11.10;99.90;;;;;;5035374;28;20034;-74
2020/12/17 01:49:16;;;;;;;17.83;13.30;;;11.10;99.90;;;;;;5032660;28;20029;-74
2020/12/17 01:51:42;;;;;;;15.73;11.73;;;11.20;99.90;;;;;;5042719;28;20029;-73
2020/12/17 01:54:09;;;;;;;14.20;11.75;;;11.40;99.90;;;;;;5052594;28;20355;-73
2020/12/17 01:56:41;;;;;;;15.68;12.75;;;11.50;99.90;;;;;;5051611;28;20373;-72
2020/12/17 01:59:22;;;;;;;18.67;11.68;;;11.60;99.90;;;;;;5046328;28;20655;-73
2020/12/17 02:01:50;;;;;;;;;;;11.50;99.90;;;;;;5033366;28;20398;-73
2020/12/17 02:04:19;;;;;;;12.65;9.85;;;11.60;99.90;;;;;;5032097;28;19905;-74
2020/12/17 02:06:47;;;;;;;13.77;10.85;;;11.70;99.90;;;;;;5031823;28;20036;-74
2020/12/17 02:09:23;;;;;;;10.90;8.88;;;11.80;99.90;;;;;;5031787;28;20041;-74
2020/12/17 02:11:54;;;;;;;12.77;9.00;;;11.80;99.90;;;;;;5031796;28;20045;-74
2020/12/17 02:14:22;;;;;;;12.20;9.65;;;11.90;99.90;;;;;;5032131;28;20037;-74
2020/12/17 02:16:49;;;;;;;11.18;8.13;;;11.90;99.90;;;;;;5032051;28;20026;-75
2020/12/17 02:19:16;;;;;;;10.70;8.25;;;12.00;99.90;;;;;;5041909;28;20036;-74
2020/12/17 02:21:44;;;;;;;15.85;9.50;;;12.10;99.90;;;;;;5051896;28;20374;-74
2020/12/17 02:24:11;;;;;;;12.75;8.50;;;12.10;99.90;;;;;;5051770;28;20025;-75
2020/12/17 02:26:41;;;;;;;11.80;8.63;;;12.20;99.90;;;;;;5051813;28;20025;-74
2020/12/17 02:29:08;;;;;;;9.98;7.93;;;12.10;99.90;;;;;;5051500;28;20032;-75
2020/12/17 02:31:36;;;;;;;9.90;6.93;;;12.10;99.90;;;;;;5051622;28;20041;-74
2020/12/17 02:34:03;;;;;;;8.93;6.40;;;12.00;99.90;;;;;;5051394;28;20033;-74
2020/12/17 02:36:30;;;;;;;10.68;6.22;;;11.90;99.90;;;;;;5040773;28;20391;-74
2020/12/17 02:38:58;;;;;;;8.27;5.50;;;12.10;99.90;;;;;;5049470;28;20453;-74
2020/12/17 02:41:26;;;;;;;8.88;5.18;;;12.10;99.90;;;;;;5051407;28;20032;-75
2020/12/17 02:43:53;;;;;;;10.50;4.78;;;12.20;99.90;;;;;;5051531;28;20025;-75
2020/12/17 02:46:20;;;;;;;9.68;4.22;;;12.20;99.90;;;;;;5051621;28;20041;-75
2020/12/17 02:48:54;;;;;;;7.30;2.80;;;12.10;99.90;;;;;;5051430;28;20044;-76
2020/12/17 02:51:22;;;;;;;3.80;2.13;;;12.00;99.90;;;;;;5051153;28;20029;-73
2020/12/17 02:53:49;;;;;;;5.78;1.88;;;12.00;99.90;;;;;;5051707;28;20508;-74
2020/12/17 02:56:16;;;;;;;1.52;0.80;;;12.10;99.90;;;;;;5037201;28;20033;-74
2020/12/17 02:58:43;;;;;;;3.22;1.25;;;12.10;99.90;;;;;;5031386;28;20053;-75
2020/12/17 03:01:10;;;;;;;3.15;1.10;;;12.20;99.90;;;;;;5029503;28;20056;-76
2020/12/17 03:03:37;;;;;;;2.15;1.10;;;12.10;99.90;;;;;;5031486;28;20041;-75
2020/12/17 03:06:06;;;;;;;3.80;1.35;;;12.10;99.90;;;;;;5031458;28;20453;-75
2020/12/17 03:08:33;;;;;;;2.75;0.88;;;12.00;99.90;;;;;;5031207;28;20044;-76
2020/12/17 03:11:00;;;;;;;1.73;0.68;;;12.10;99.90;;;;;;5031464;28;20037;-77
2020/12/17 03:13:27;;;;;;;13.13;8.15;;;12.20;99.90;;;;;;5030942;28;20037;-76
2020/12/17 03:15:54;;;;;;;10.10;6.20;;;12.10;99.90;;;;;;5031611;28;20040;-76
2020/12/17 03:18:21;;;;;;;9.25;6.22;;;12.10;99.90;;;;;;5030898;28;20064;-76
2020/12/17 03:20:48;;;;;;;6.03;2.30;;;12.10;99.90;;;;;;5045825;28;20032;-73
2020/12/17 03:23:15;;;;;;;5.32;2.20;;;12.10;99.90;;;;;;5041560;28;20385;-76
2020/12/17 03:25:42;;;;;;;4.97;2.28;;;12.10;99.90;;;;;;5047525;28;20029;-75
2020/12/17 03:28:09;;;;;;;6.55;3.10;;;12.00;99.90;;;;;;5031177;28;20037;-75
2020/12/17 03:30:36;;;;;;;5.85;3.35;;;12.00;99.90;;;;;;5032338;28;20037;-76
2020/12/17 03:33:03;;;;;;;7.85;3.70;;;11.90;99.90;;;;;;5032203;28;20029;-76
2020/12/17 03:35:30;;;;;;;9.57;4.68;;;11.90;99.90;;;;;;5031205;28;20060;-76
2020/12/17 03:38:00;;;;;;;9.95;6.07;;;11.90;99.90;;;;;;5031038;28;20037;-75
2020/12/17 03:40:28;;;;;;;14.88;9.30;;;11.80;99.90;;;;;;5041059;28;20029;-75
2020/12/17 03:42:55;;;;;;;13.48;9.90;;;11.70;99.90;;;;;;5036092;28;20056;-75
2020/12/17 03:45:22;;;;;;;17.40;13.50;;;11.60;99.90;;;;;;5051009;28;20041;-76
2020/12/17 03:47:50;;;;;;;19.10;12.80;;;11.50;99.90;;;;;;5038073;28;20385;-75
2020/12/17 03:50:17;;;;;;;15.73;13.45;;;11.30;99.90;;;;;;5041596;28;20029;-74
2020/12/17 03:52:45;;;;;;;20.90;13.75;;;11.10;99.90;;;;;;5038797;28;20033;-73
2020/12/17 03:55:12;;;;;;;15.93;12.20;;;11.00;99.90;;;;;;5034284;28;20501;-73
2020/12/17 03:57:39;;;;;;;15.35;12.05;;;10.90;99.90;;;;;;5036158;28;20026;-73
2020/12/17 04:00:06;;;;;;;16.13;12.50;;;10.80;99.90;;;;;;5054358;28;20033;-74
2020/12/17 04:02:34;;;;;;;15.38;11.93;;;10.80;99.90;;;;;;5054397;28;20025;-73
2020/12/17 04:05:01;;;;;;;21.38;12.88;;;10.60;99.90;;;;;;5041122;28;20033;-74
2020/12/17 04:07:27;;;;;;;17.95;11.15;;;10.60;99.90;;;;;;5034081;28;20037;-74
2020/12/17 04:09:55;;;;;;;17.98;10.70;;;10.50;99.90;;;;;;5046447;28;20036;-74
2020/12/17 04:12:22;;;;;;;15.48;10.90;;;10.50;99.90;;;;;;5049940;28;20052;-77
2020/12/17 04:14:49;;;;;;;30.23;21.17;;;10.40;99.90;;;;;;5042160;28;20044;-75
2020/12/17 04:17:16;;;;;;;57.78;37.30;;;10.30;99.90;;;;;;5049998;28;20017;-75
2020/12/17 04:19:43;;;;;;;25.75;19.30;;;10.20;99.90;;;;;;5034021;28;20499;-75
2020/12/17 04:22:16;;;;;;;35.78;23.05;;;10.10;99.90;;;;;;5037203;28;20071;-74
2020/12/17 04:24:47;;;;;;;27.30;19.58;;;10.00;99.90;;;;;;5034526;28;20041;-74
2020/12/17 04:27:15;;;;;;;25.65;18.98;;;10.10;99.90;;;;;;5041184;28;20534;-73
2020/12/17 04:29:42;;;;;;;18.25;12.95;;;10.10;99.90;;;;;;5053769;28;20032;-74
2020/12/17 04:32:09;;;;;;;16.33;8.85;;;10.20;99.90;;;;;;5047556;28;20030;-74
2020/12/17 04:34:36;;;;;;;13.07;7.55;;;10.40;99.90;;;;;;5034975;28;20029;-74
2020/12/17 04:37:06;;;;;;;18.13;6.15;;;10.50;99.90;;;;;;5033915;28;20018;-75
2020/12/17 04:39:36;;;;;;;13.13;5.20;;;10.60;99.90;;;;;;5036898;28;20040;-74
2020/12/17 04:42:05;;;;;;;16.45;6.00;;;10.60;99.90;;;;;;5053181;28;20041;-74
2020/12/17 04:44:32;;;;;;;15.02;6.22;;;10.60;99.90;;;;;;5053945;28;20041;-74
2020/12/17 04:47:05;;;;;;;16.35;6.50;;;10.70;99.90;;;;;;5051117;28;20421;-75
2020/12/17 04:49:47;;;;;;;26.48;8.45;;;10.70;99.90;;;;;;5053058;28;20049;-75
2020/12/17 04:52:15;;;;;;;14.27;7.00;;;10.70;99.90;;;;;;5034093;28;20139;-73
2020/12/17 04:54:42;;;;;;;17.90;6.50;;;10.70;99.90;;;;;;5033255;28;20025;-74
2020/12/17 04:57:14;;;;;;;14.60;7.18;;;10.70;99.90;;;;;;5037899;28;20017;-74
2020/12/17 04:59:46;;;;;;;17.42;6.78;;;10.70;99.90;;;;;;5053390;28;20053;-75
2020/12/17 05:02:16;;;;;;;18.17;6.10;;;10.70;99.90;;;;;;5048510;28;20032;-74
2020/12/17 05:04:45;;;;;;;14.68;5.30;;;10.80;99.90;;;;;;5035815;28;20029;-75
2020/12/17 05:07:25;;;;;;;16.35;5.68;;;10.70;99.90;;;;;;5033412;28;20025;-75
2020/12/17 05:09:52;;;;;;;27.00;7.80;;;10.70;99.90;;;;;;5048313;28;20057;-73
2020/12/17 05:12:20;;;;;;;15.23;6.25;;;10.70;99.90;;;;;;5033471;28;20032;-75
2020/12/17 05:14:49;;;;;;;20.48;6.07;;;10.60;99.90;;;;;;5033068;28;20051;-74
2020/12/17 05:17:16;;;;;;;23.67;6.78;;;10.70;99.90;;;;;;5034802;28;20047;-74
2020/12/17 05:19:44;;;;;;;18.55;5.82;;;10.60;99.90;;;;;;5036275;28;20041;-74
2020/12/17 05:22:15;;;;;;;15.45;5.38;;;10.60;99.90;;;;;;5044015;28;20029;-74
2020/12/17 05:24:48;;;;;;;14.75;5.20;;;10.70;99.90;;;;;;5044634;28;20043;-75
2020/12/17 05:27:15;;;;;;;11.68;4.35;;;10.70;99.90;;;;;;5032581;28;20390;-73
2020/12/17 05:29:43;;;;;;;11.32;4.03;;;10.70;99.90;;;;;;5031038;28;20045;-73
2020/12/17 05:32:17;;;;;;;15.07;4.03;;;10.80;99.90;;;;;;5049122;28;20052;-76
2020/12/17 05:34:45;;;;;;;10.73;3.30;;;10.80;99.90;;;;;;5052335;28;20409;-73
2020/12/17 05:37:13;;;;;;;10.25;2.78;;;10.80;99.90;;;;;;5039041;28;20029;-79
2020/12/17 05:39:43;;;;;;;11.57;2.83;;;10.80;99.90;;;;;;5032411;28;20025;-76
2020/12/17 05:42:13;;;;;;;15.00;3.45;;;10.80;99.90;;;;;;5032339;28;20029;-76
2020/12/17 05:44:40;;;;;;;9.18;3.15;;;10.80;99.90;;;;;;5036313;28;20229;-75
2020/12/17 05:47:13;;;;;;;9.75;3.50;;;10.90;99.90;;;;;;5040451;28;20041;-75
2020/12/17 05:49:40;;;;;;;15.13;4.97;;;10.80;99.90;;;;;;5046094;28;20041;-74
2020/12/17 05:52:19;;;;;;;14.98;4.90;;;10.80;99.90;;;;;;5052046;28;20025;-74
2020/12/17 05:54:56;;;;;;;11.23;5.00;;;10.70;99.90;;;;;;5047415;28;20045;-74
2020/12/17 05:57:23;;;;;;;13.30;6.90;;;10.70;99.90;;;;;;5039058;28;20501;-73
2020/12/17 06:00:14;;;;;;;13.40;7.38;;;10.60;99.90;;;;;;5035412;28;20049;-73
2020/12/17 06:02:41;;;;;;;14.73;8.98;;;10.60;99.90;;;;;;5032339;28;20029;-74
2020/12/17 06:05:16;;;;;;;14.57;8.82;;;10.50;99.90;;;;;;5035364;28;20032;-74
2020/12/17 06:07:49;;;;;;;21.35;10.07;;;10.40;99.90;;;;;;5051797;28;20040;-76
2020/12/17 06:10:25;;;;;;;16.30;10.77;;;10.40;99.90;;;;;;5047890;28;20037;-75
2020/12/17 06:12:56;;;;;;;20.67;12.57;;;10.40;99.90;;;;;;5031837;28;20470;-75
2020/12/17 06:15:26;;;;;;;19.33;12.40;;;10.40;99.90;;;;;;5064354;28;20032;-75
2020/12/17 06:17:54;;;;;;;19.83;13.73;;;10.30;99.90;;;;;;5051066;28;20029;-75
2020/12/17 06:20:23;;;;;;;21.40;14.38;;;10.30;99.90;;;;;;5033222;28;20209;-75
2020/12/17 06:23:04;;;;;;;20.73;12.98;;;10.30;99.90;;;;;;5034619;28;20021;-76
2020/12/17 06:25:33;;;;;;;17.33;13.60;;;10.30;99.90;;;;;;5038507;28;20033;-76
2020/12/17 06:28:00;;;;;;;24.20;16.23;;;10.30;99.90;;;;;;5051740;28;20044;-73
2020/12/17 06:30:32;;;;;;;22.30;16.15;;;10.20;99.90;;;;;;5036578;28;20026;-74
2020/12/17 06:33:03;;;;;;;21.85;16.13;;;10.10;99.90;;;;;;5031407;28;20385;-73
2020/12/17 06:35:41;;;;;;;19.53;15.90;;;10.10;99.90;;;;;;5031618;28;20038;-74
2020/12/17 06:38:15;;;;;;;26.30;17.85;;;10.10;99.90;;;;;;5029740;28;20275;-75
2020/12/17 06:40:43;;;;;;;20.70;17.10;;;10.10;99.90;;;;;;5031448;28;20029;-74
2020/12/17 06:43:31;;;;;;;21.52;17.80;;;10.00;99.90;;;;;;5050456;28;20033;-73
2020/12/17 06:46:00;;;;;;;24.42;18.67;;;10.00;99.90;;;;;;5051153;28;20037;-74
2020/12/17 06:48:34;;;;;;;25.52;21.20;;;9.90;99.90;;;;;;5051163;28;20040;-74
2020/12/17 06:51:21;;;;;;;27.95;22.27;;;9.70;99.90;;;;;;5050845;28;20033;-75
2020/12/17 06:53:48;;;;;;;31.98;24.42;;;9.70;99.90;;;;;;5051066;28;20036;-75
2020/12/17 06:56:18;;;;;;;28.92;21.10;;;9.60;99.90;;;;;;5051121;28;20025;-74
2020/12/17 06:58:45;;;;;;;28.23;20.30;;;9.50;99.90;;;;;;5051178;28;20040;-76
2020/12/17 07:01:37;;;;;;;32.38;21.63;;;9.40;99.90;;;;;;5051154;28;20021;-75
2020/12/17 07:04:04;;;;;;;25.83;20.05;;;9.30;99.90;;;;;;5051090;28;20029;-78
2020/12/17 07:06:31;;;;;;;25.83;21.50;;;9.30;99.90;;;;;;5051006;28;20029;-77
2020/12/17 07:08:59;;;;;;;25.85;21.38;;;9.20;99.90;;;;;;5046772;28;20040;-77
2020/12/17 07:11:45;;;;;;;32.63;23.33;;;9.20;99.90;;;;;;5045563;28;20026;-75
2020/12/17 07:14:24;;;;;;;29.33;18.80;;;9.20;99.90;;;;;;5031233;28;20389;-77
2020/12/17 07:16:55;;;;;;;28.05;17.70;;;9.20;99.90;;;;;;5031105;28;20037;-78
2020/12/17 07:19:44;;;;;;;25.00;16.83;;;9.20;99.90;;;;;;5030734;28;20451;-77
2020/12/17 07:22:14;;;;;;;27.05;16.83;;;9.20;99.90;;;;;;5031125;28;20049;-76
2020/12/17 07:24:47;;;;;;;41.05;18.33;;;9.20;99.90;;;;;;5030721;28;20038;-77
2020/12/17 07:27:25;;;;;;;35.67;18.80;;;9.20;99.90;;;;;;5030966;28;20025;-76
2020/12/17 07:29:59;;;;;;;32.15;17.35;;;9.20;99.90;;;;;;5033005;28;20100;-79
2020/12/17 07:32:44;;;;;;;27.25;17.48;;;9.20;99.90;;;;;;5034603;28;20038;-77
2020/12/17 07:35:11;;;;;;;41.33;19.23;;;9.20;99.90;;;;;;5034798;28;20037;-80
2020/12/17 07:37:57;;;;;;;38.15;17.67;;;9.20;99.90;;;;;;5035043;28;20044;-77
2020/12/17 07:40:39;;;;;;;22.00;15.23;;;9.20;99.90;;;;;;5033977;28;20037;-76
2020/12/17 07:43:15;;;;;;;37.97;16.65;;;9.30;99.90;;;;;;5034719;28;20054;-76
2020/12/17 07:45:52;;;;;;;23.73;13.00;;;9.50;99.90;;;;;;5044414;28;20037;-75
2020/12/17 07:48:38;;;;;;;25.17;11.93;;;9.70;99.90;;;;;;5038613;28;20048;-82
2020/12/17 07:51:18;;;;;;;17.58;11.10;;;9.80;99.90;;;;;;5038082;28;20036;-81
2020/12/17 07:53:49;;;;;;;204.93;23.67;;;9.90;99.90;;;;;;5054847;28;20460;-80
2020/12/17 07:56:17;;;;;;;40.75;12.50;;;10.00;99.90;;;;;;5053383;28;20025;-81
2020/12/17 07:58:45;;;;;;;413.27;42.53;;;10.00;99.90;;;;;;5042676;28;20041;-78
2020/12/17 08:01:13;;;;;;;108.18;16.92;;;10.10;99.90;;;;;;5049272;28;20025;-76
2020/12/17 08:03:51;;;;;;;222.07;23.48;;;10.10;99.90;;;;;;5054514;28;20025;-76
2020/12/17 08:06:23;;;;;;;38.88;13.25;;;10.20;99.90;;;;;;5054034;28;20417;-75
2020/12/17 08:09:03;;;;;;;23.35;12.63;;;10.30;99.90;;;;;;5053932;28;20790;-76
2020/12/17 08:11:31;;;;;;;22.77;12.80;;;10.30;99.90;;;;;;5052844;28;20044;-76
2020/12/17 08:14:03;;;;;;;20.88;13.70;;;10.30;99.90;;;;;;5054008;28;20100;-74
2020/12/17 08:16:31;;;;;;;45.60;13.32;;;10.30;99.90;;;;;;5045904;28;20036;-74
2020/12/17 08:19:03;;;;;;;21.85;9.52;;;10.30;99.90;;;;;;5038278;28;20041;-75
2020/12/17 08:21:33;;;;;;;140.60;16.60;;;10.40;99.90;;;;;;5041375;28;20034;-74
2020/12/17 08:24:00;;;;;;;143.13;19.70;;;10.40;99.90;;;;;;5033813;28;20037;-75
2020/12/17 08:26:29;;;;;;;50.65;11.13;;;10.40;99.90;;;;;;5053100;28;20024;-73
2020/12/17 08:28:59;;;;;;;40.72;10.20;;;10.40;99.90;;;;;;5041655;28;20498;-74
2020/12/17 08:31:28;;;;;;;8.95;4.63;;;10.40;99.90;;;;;;5052518;28;20025;-73
2020/12/17 08:33:57;;;;;;;13.07;5.15;;;10.40;99.90;;;;;;5044862;28;20053;-76
2020/12/17 08:36:27;;;;;;;15.35;6.25;;;10.30;99.90;;;;;;5033971;28;20021;-74
2020/12/17 08:38:58;;;;;;;17.50;6.35;;;10.30;99.90;;;;;;5046603;28;20036;-77
2020/12/17 08:41:31;;;;;;;34.55;7.50;;;10.30;99.90;;;;;;5052787;28;20664;-76
2020/12/17 08:44:03;;;;;;;163.65;17.40;;;10.20;99.90;;;;;;5049985;28;20048;-77
2020/12/17 08:46:44;;;;;;;637.40;52.53;;;10.20;99.90;;;;;;5053473;28;20029;-74
2020/12/17 08:49:14;;;;;;;358.63;33.70;;;10.20;99.90;;;;;;5053062;28;20052;-76
2020/12/17 08:51:46;;;;;;;332.48;26.27;;;10.20;99.90;;;;;;5053467;28;20025;-77
2020/12/17 08:54:32;;;;;;;921.15;78.18;;;10.20;99.90;;;;;;5035805;28;20041;-76
2020/12/17 08:57:04;;;;;;;416.30;34.03;;;10.20;99.90;;;;;;5033008;28;20045;-78
2020/12/17 08:59:31;;;;;;;320.48;25.02;;;10.20;99.90;;;;;;5033360;28;20045;-77
2020/12/17 09:01:59;;;;;;;378.65;25.77;;;10.20;99.90;;;;;;5033570;28;20029;-77
2020/12/17 09:04:26;;;;;;;276.05;22.88;;;10.20;99.90;;;;;;5034429;28;20025;-77
2020/12/17 09:06:57;;;;;;;8.20;5.85;;;10.20;99.90;;;;;;5033788;28;20037;-79
2020/12/17 09:09:26;;;;;;;5.05;3.72;;;10.20;99.90;;;;;;5050600;28;20393;-78
2020/12/17 09:12:01;;;;;;;7.72;3.00;;;10.20;99.90;;;;;;5053164;28;20377;-78
2020/12/17 09:14:39;;;;;;;1.95;1.40;;;10.20;99.90;;;;;;5035833;28;20474;-77
2020/12/17 09:17:17;;;;;;;1.95;1.10;;;10.30;99.90;;;;;;5034323;28;20060;-78
2020/12/17 09:19:46;;;;;;;0.98;0.60;;;10.30;99.90;;;;;;5032966;28;20096;-77
2020/12/17 09:22:14;;;;;;;1.33;0.30;;;10.30;99.90;;;;;;5050815;28;20056;-77
2020/12/17 09:24:50;;;;;;;0.10;0.10;;;10.40;99.90;;;;;;5052207;28;20041;-76
2020/12/17 09:27:28;;;;;;;0.52;0.20;;;10.40;99.90;;;;;;5051180;28;20029;-76
2020/12/17 09:30:19;;;;;;;3.33;0.50;;;10.50;99.90;;;;;;5052575;28;20037;-77
2020/12/17 09:32:59;;;;;;;1.67;0.40;;;10.50;99.90;;;;;;5051823;28;20037;-80
2020/12/17 09:35:34;;;;;;;1.70;0.80;;;10.40;99.90;;;;;;5052183;28;20512;-82
2020/12/17 09:38:09;;;;;;;6.15;1.30;;;10.40;99.90;;;;;;5051417;28;20021;-84
2020/12/17 09:40:38;;;;;;;2.05;0.50;;;10.30;99.90;;;;;;5051202;28;20040;-80
2020/12/17 09:43:13;;;;;;;1.63;0.80;;;10.30;99.90;;;;;;5033622;28;20041;-78
2020/12/17 09:45:41;;;;;;;3.67;0.80;;;10.30;99.90;;;;;;5032549;28;20032;-79
2020/12/17 09:48:22;;;;;;;6.47;1.25;;;10.30;99.90;;;;;;5033971;28;20037;-78
2020/12/17 09:50:50;;;;;;;;;;;10.30;99.90;;;;;;5032698;28;20052;-79
2020/12/17 09:53:20;;;;;;;17.08;1.83;;;10.30;99.90;;;;;;5046324;28;19909;-77
2020/12/17 09:55:47;;;;;;;67.05;4.78;;;10.30;99.90;;;;;;5035997;28;20509;-75
2020/12/17 09:58:14;;;;;;;239.43;13.10;;;10.30;99.90;;;;;;5039726;28;20057;-75
2020/12/17 10:00:41;;;;;;;272.70;16.00;;;10.30;99.90;;;;;;5052041;28;20481;-77
2020/12/17 10:03:08;;;;;;;155.05;10.27;;;10.30;99.90;;;;;;5038634;28;20033;-77
2020/12/17 10:05:35;;;;;;;76.72;6.53;;;10.30;99.90;;;;;;5044006;28;20033;-77
2020/12/17 10:08:02;;;;;;;244.13;12.35;;;10.30;99.90;;;;;;5050056;28;20384;-77
2020/12/17 10:10:29;;;;;;;163.35;9.90;;;10.30;99.90;;;;;;5051534;28;20054;-77
2020/12/17 10:12:59;;;;;;;155.43;9.60;;;10.30;99.90;;;;;;5052003;28;20063;-82
2020/12/17 10:15:27;;;;;;;128.88;8.93;;;10.30;99.90;;;;;;5032452;28;20040;-75
2020/12/17 10:17:55;;;;;;;244.38;14.15;;;10.20;99.90;;;;;;5031690;28;20030;-78
2020/12/17 10:20:23;;;;;;;183.27;9.93;;;10.20;99.90;;;;;;5033122;28;20485;-76
2020/12/17 10:22:50;;;;;;;250.85;11.18;;;10.20;99.90;;;;;;5031807;28;20021;-75
2020/12/17 10:25:19;;;;;;;270.90;13.50;;;10.20;99.90;;;;;;5049025;28;20436;-75
2020/12/17 10:27:46;;;;;;;268.90;12.27;;;10.20;99.90;;;;;;5051604;28;20028;-76
2020/12/17 10:30:13;;;;;;;278.85;11.35;;;10.10;99.90;;;;;;5035642;28;20532;-80
2020/12/17 10:32:43;;;;;;;278.83;13.60;;;10.10;99.90;;;;;;5031907;28;20470;-76
2020/12/17 10:35:11;;;;;;;175.32;7.32;;;10.10;99.90;;;;;;5030213;28;20042;-75
2020/12/17 10:37:41;;;;;;;186.43;7.55;;;10.10;99.90;;;;;;5031386;28;20518;-76
2020/12/17 10:40:12;;;;;;;131.05;4.80;;;10.10;99.90;;;;;;5045030;28;20036;-76
2020/12/17 10:42:40;;;;;;;125.63;4.75;;;10.10;99.90;;;;;;5051544;28;20033;-76
2020/12/17 10:45:09;;;;;;;149.95;4.60;;;10.10;99.90;;;;;;5050906;28;20033;-78
2020/12/17 10:47:37;;;;;;;109.80;4.03;;;10.10;99.90;;;;;;5033463;28;20041;-75
2020/12/17 10:50:07;;;;;;;272.48;10.10;;;10.10;99.90;;;;;;5042818;28;20033;-76
2020/12/17 10:52:34;;;;;;;184.45;7.10;;;10.10;99.90;;;;;;5051404;28;20025;-76
2020/12/17 10:55:02;;;;;;;229.23;10.95;;;10.10;99.90;;;;;;5039366;28;20532;-75
2020/12/17 10:57:29;;;;;;;140.65;10.43;;;10.10;99.90;;;;;;5031126;28;20092;-76
2020/12/17 10:59:56;;;;;;;480.88;25.50;;;10.10;99.90;;;;;;5032434;28;20401;-77
2020/12/17 11:02:23;;;;;;;630.13;37.35;;;10.00;99.90;;;;;;5031761;28;20029;-79
2020/12/17 11:04:50;;;;;;;383.88;28.05;;;10.00;99.90;;;;;;5036565;28;20025;-77
2020/12/17 11:07:17;;;;;;;644.50;35.90;;;10.00;99.90;;;;;;5042312;28;20029;-76
2020/12/17 11:09:44;;;;;;;613.53;38.28;;;10.00;99.90;;;;;;5053731;28;20041;-77
2020/12/17 11:12:11;;;;;;;561.67;35.42;;;10.10;99.90;;;;;;5054343;28;20036;-82
2020/12/17 11:14:38;;;;;;;514.85;38.88;;;10.10;99.90;;;;;;5053413;28;20048;-77
2020/12/17 11:17:05;;;;;;;419.90;31.85;;;10.10;99.90;;;;;;5038306;28;20025;-77
2020/12/17 11:19:32;;;;;;;287.83;23.45;;;10.10;99.90;;;;;;5053447;28;20036;-77
2020/12/17 11:22:00;;;;;;;831.08;57.15;;;10.00;99.90;;;;;;5053357;28;20045;-76
2020/12/17 11:24:28;;;;;;;453.85;28.13;;;10.00;99.90;;;;;;5055331;28;20051;-75
2020/12/17 11:26:55;;;;;;;572.22;41.08;;;10.10;99.90;;;;;;5040035;28;20034;-75
2020/12/17 11:29:22;;;;;;;520.30;35.35;;;10.10;99.90;;;;;;5039009;28;20390;-77
2020/12/17 11:31:49;;;;;;;631.63;43.97;;;10.10;99.90;;;;;;5053274;28;20036;-78
2020/12/17 11:34:16;;;;;;;705.17;50.70;;;10.10;99.90;;;;;;5053907;28;20029;-76
2020/12/17 11:36:46;;;;;;;602.25;49.38;;;10.10;99.90;;;;;;5054829;28;20032;-77
2020/12/17 11:39:16;;;;;;;601.65;47.28;;;10.10;99.90;;;;;;5039956;28;20029;-74
2020/12/17 11:41:48;;;;;;;375.80;28.48;;;10.10;99.90;;;;;;5035768;28;20037;-75
2020/12/17 11:44:17;;;;;;;;;;;10.10;99.90;;;;;;5035361;28;20026;-75
2020/12/17 11:46:46;;;;;;;608.97;43.25;;;10.10;99.90;;;;;;5037091;28;19932;-76
2020/12/17 11:49:14;;;;;;;553.72;40.45;;;10.10;99.90;;;;;;5054025;28;20484;-75
2020/12/17 11:51:41;;;;;;;433.73;36.45;;;10.10;99.90;;;;;;5052916;28;20029;-74
2020/12/17 11:54:07;;;;;;;457.63;38.13;;;10.10;99.90;;;;;;5054065;28;20377;-75
2020/12/17 11:56:34;;;;;;;431.42;33.63;;;10.10;99.90;;;;;;5054000;28;20374;-76
2020/12/17 11:59:02;;;;;;;779.90;59.58;;;10.10;99.90;;;;;;5034356;28;20045;-76
2020/12/17 12:01:32;;;;;;;355.83;24.77;;;10.10;99.90;;;;;;5034147;28;20018;-74
2020/12/17 12:03:59;;;;;;;722.78;58.70;;;10.10;99.90;;;;;;5052894;28;20036;-73
2020/12/17 12:06:26;;;;;;;519.30;40.17;;;10.10;99.90;;;;;;5054204;28;20489;-74
2020/12/17 12:08:53;;;;;;;201.75;23.45;;;10.20;99.90;;;;;;5053116;28;20056;-75
2020/12/17 12:11:20;;;;;;;183.02;24.15;;;10.20;99.90;;;;;;5053853;28;20032;-75
2020/12/17 12:13:47;;;;;;;449.45;40.20;;;10.20;99.90;;;;;;5052467;28;20516;-76
2020/12/17 12:16:14;;;;;;;512.97;39.97;;;10.10;99.90;;;;;;5039150;28;20359;-75
2020/12/17 12:18:41;;;;;;;535.92;43.70;;;10.10;99.90;;;;;;5033808;28;20021;-77
2020/12/17 12:21:12;;;;;;;651.25;46.88;;;10.20;99.90;;;;;;5052389;28;20032;-75
2020/12/17 12:23:42;;;;;;;467.17;36.80;;;10.20;99.90;;;;;;5042985;28;20045;-74
2020/12/17 12:26:09;;;;;;;505.00;38.10;;;10.20;99.90;;;;;;5034089;28;20355;-75
2020/12/17 12:28:38;;;;;;;270.45;28.50;;;10.20;99.90;;;;;;5043228;28;20033;-74
2020/12/17 12:31:06;;;;;;;228.57;24.75;;;10.20;99.90;;;;;;5053293;28;20041;-75
2020/12/17 12:33:33;;;;;;;795.10;56.05;;;10.20;99.90;;;;;;5051801;28;20037;-76
2020/12/17 12:36:00;;;;;;;491.20;41.78;;;10.20;99.90;;;;;;5053636;28;20025;-74
2020/12/17 12:38:27;;;;;;;761.20;55.95;;;10.20;99.90;;;;;;5052224;28;20044;-77
2020/12/17 12:40:54;;;;;;;629.45;52.05;;;10.20;99.90;;;;;;5053167;28;20493;-76
2020/12/17 12:43:21;;;;;;;673.80;46.83;;;10.10;99.90;;;;;;5051709;28;20033;-77
2020/12/17 12:45:50;;;;;;;739.03;57.78;;;10.20;99.90;;;;;;5053483;28;20033;-76